createdAt,value
2018-09-29T00:01:45.549Z,77.31
2018-09-29T00:04:14.796Z,76.97
2018-09-29T00:06:48.988Z,77.05
2018-09-29T00:09:17.902Z,77.96
2018-09-29T00:11:46.852Z,77.18
2018-09-29T00:14:15.660Z,77.70
2018-09-29T00:16:44.733Z,77.18
2018-09-29T00:19:14.832Z,76.96
2018-09-29T00:21:45.097Z,77.14
2018-09-29T00:24:14.548Z,77.57
2018-09-29T00:26:43.576Z,77.37
2018-09-29T00:29:12.555Z,77.74
2018-09-29T00:31:41.671Z,77.10
2018-09-29T00:34:11.012Z,77.08
2018-09-29T00:36:39.923Z,77.34
2018-09-29T00:39:09.251Z,78.12
2018-09-29T00:41:38.196Z,77.91
2018-09-29T00:44:07.975Z,77.81
2018-09-29T00:46:36.847Z,78.19
2018-09-29T00:49:05.659Z,77.57
2018-09-29T00:51:35.243Z,77.61
2018-09-29T00:54:04.956Z,78.53
2018-09-29T00:56:34.458Z,77.81
2018-09-29T00:59:03.991Z,77.91
2018-09-29T01:01:32.805Z,79.14
2018-09-29T01:04:02.315Z,79.51
2018-09-29T01:06:31.800Z,79.56
2018-09-29T01:09:00.576Z,79.35
2018-09-29T01:11:29.390Z,79.40
2018-09-29T01:13:58.231Z,78.83
2018-09-29T01:16:27.043Z,78.06
2018-09-29T01:18:56.065Z,78.85
2018-09-29T01:21:26.529Z,78.28
2018-09-29T01:23:55.989Z,78.49
2018-09-29T01:26:24.763Z,78.64
2018-09-29T01:28:53.543Z,79.13
2018-09-29T01:31:22.378Z,78.58
2018-09-29T01:33:51.151Z,78.64
2018-09-29T01:36:20.166Z,78.78
2018-09-29T01:38:49.980Z,77.92
2018-09-29T01:41:19.874Z,77.83
2018-09-29T01:43:48.835Z,78.15
2018-09-29T01:46:17.637Z,78.07
2018-09-29T01:48:47.002Z,78.26
2018-09-29T01:51:17.233Z,78.28
2018-09-29T01:53:46.991Z,78.43
2018-09-29T01:56:16.271Z,78.93
2018-09-29T01:58:46.523Z,78.29
2018-09-29T02:01:16.043Z,78.17
2018-09-29T02:03:44.985Z,78.17
2018-09-29T02:06:13.783Z,78.12
2018-09-29T02:08:43.191Z,78.41
2018-09-29T02:11:11.988Z,78.21
2018-09-29T02:13:40.781Z,78.21
2018-09-29T02:16:09.576Z,78.58
2018-09-29T02:18:38.527Z,78.04
2018-09-29T02:21:08.759Z,78.35
2018-09-29T02:23:38.510Z,77.54
2018-09-29T02:26:07.683Z,77.82
2018-09-29T02:28:36.543Z,78.36
2018-09-29T02:31:05.497Z,78.69
2018-09-29T02:33:35.207Z,78.45
2018-09-29T02:36:04.118Z,78.26
2018-09-29T02:38:33.589Z,78.86
2018-09-29T02:41:02.405Z,78.87
2018-09-29T02:43:31.853Z,78.95
2018-09-29T02:46:00.665Z,78.44
2018-09-29T02:48:29.455Z,78.76
2018-09-29T02:50:58.254Z,79.26
2018-09-29T02:53:27.716Z,80.30
2018-09-29T02:55:56.973Z,80.50
2018-09-29T02:58:26.427Z,80.39
2018-09-29T03:00:55.830Z,79.45
2018-09-29T03:03:24.616Z,80.09
2018-09-29T03:05:53.393Z,79.68
2018-09-29T03:08:22.739Z,80.44
2018-09-29T03:10:51.474Z,80.24
2018-09-29T03:13:20.192Z,79.81
2018-09-29T03:15:49.074Z,79.43
2018-09-29T03:18:18.021Z,79.46
2018-09-29T03:20:47.697Z,78.90
2018-09-29T03:23:16.638Z,79.13
2018-09-29T03:25:46.061Z,78.64
2018-09-29T03:28:14.909Z,78.62
2018-09-29T03:30:43.778Z,78.22
2018-09-29T03:33:12.573Z,78.71
2018-09-29T03:35:41.992Z,78.23
2018-09-29T03:38:10.806Z,78.39
2018-09-29T03:40:39.993Z,78.58
2018-09-29T03:43:09.179Z,77.97
2018-09-29T03:45:37.986Z,78.20
2018-09-29T03:48:06.981Z,78.19
2018-09-29T03:50:36.392Z,77.87
2018-09-29T03:53:06.065Z,77.74
2018-09-29T03:55:35.709Z,77.14
2018-09-29T03:58:05.540Z,76.57
2018-09-29T04:00:34.894Z,76.37
2018-09-29T04:03:03.704Z,76.45
2018-09-29T04:05:32.558Z,76.21
2018-09-29T04:08:01.814Z,76.39
2018-09-29T04:10:30.611Z,76.56
2018-09-29T04:12:59.358Z,76.80
2018-09-29T04:15:28.187Z,76.84
2018-09-29T04:17:56.960Z,76.61
2018-09-29T04:20:26.433Z,78.09
2018-09-29T04:22:55.183Z,77.22
2018-09-29T04:25:24.794Z,77.82
2018-09-29T04:27:53.649Z,78.41
2018-09-29T04:30:22.396Z,78.86
2018-09-29T04:32:51.244Z,78.10
2018-09-29T04:35:20.796Z,79.01
2018-09-29T04:37:49.678Z,78.65
2018-09-29T04:40:18.593Z,79.12
2018-09-29T04:42:48.136Z,79.34
2018-09-29T04:45:16.961Z,78.62
2018-09-29T04:47:45.792Z,79.17
2018-09-29T04:50:14.861Z,79.29
2018-09-29T04:52:44.445Z,79.33
2018-09-29T04:55:13.868Z,79.86
2018-09-29T04:57:42.830Z,79.95
2018-09-29T05:00:12.536Z,80.37
2018-09-29T05:02:41.744Z,80.51
2018-09-29T05:05:10.561Z,80.71
2018-09-29T05:07:39.943Z,79.91
2018-09-29T05:10:08.765Z,79.89
2018-09-29T05:12:37.612Z,81.06
2018-09-29T05:15:06.647Z,81.23
2018-09-29T05:17:35.522Z,81.40
2018-09-29T05:20:05.822Z,81.02
2018-09-29T05:22:34.588Z,80.98
2018-09-29T05:25:04.143Z,80.86
2018-09-29T05:27:32.947Z,80.13
2018-09-29T05:30:01.772Z,80.63
2018-09-29T05:32:31.219Z,80.60
2018-09-29T05:34:59.967Z,80.05
2018-09-29T05:37:28.904Z,80.24
2018-09-29T05:39:57.687Z,80.17
2018-09-29T05:42:27.172Z,79.88
2018-09-29T05:44:55.925Z,80.06
2018-09-29T05:47:24.848Z,79.89
2018-09-29T05:49:53.632Z,79.74
2018-09-29T05:52:23.450Z,79.63
2018-09-29T05:54:52.977Z,80.25
2018-09-29T05:57:22.388Z,79.20
2018-09-29T05:59:51.707Z,79.29
2018-09-29T06:02:20.489Z,79.24
2018-09-29T06:04:49.926Z,79.31
2018-09-29T06:07:19.476Z,79.50
2018-09-29T06:09:48.361Z,78.80
2018-09-29T06:12:17.391Z,78.88
2018-09-29T06:14:46.362Z,78.81
2018-09-29T06:17:15.197Z,78.74
2018-09-29T06:19:44.832Z,78.74
2018-09-29T06:22:13.823Z,78.45
2018-09-29T06:24:43.091Z,78.28
2018-09-29T06:27:12.001Z,78.07
2018-09-29T06:29:41.441Z,78.17
2018-09-29T06:32:10.209Z,77.93
2018-09-29T06:34:39.080Z,77.79
2018-09-29T06:37:07.981Z,77.94
2018-09-29T06:39:36.858Z,77.55
2018-09-29T06:42:06.562Z,77.82
2018-09-29T06:44:35.520Z,77.58
2018-09-29T06:47:04.325Z,77.25
2018-09-29T06:49:33.435Z,76.74
2018-09-29T06:52:02.828Z,76.55
2018-09-29T06:54:32.950Z,76.29
2018-09-29T06:57:02.308Z,76.40
2018-09-29T06:59:31.584Z,75.46
2018-09-29T07:02:00.367Z,75.23
2018-09-29T07:04:29.146Z,74.50
2018-09-29T07:06:57.990Z,73.87
2018-09-29T07:09:27.912Z,73.25
2018-09-29T07:11:56.704Z,72.67
2018-09-29T07:14:25.481Z,72.82
2018-09-29T07:16:54.304Z,72.95
2018-09-29T07:19:23.650Z,72.86
2018-09-29T07:21:52.553Z,72.78
2018-09-29T07:24:21.708Z,72.76
2018-09-29T07:26:51.085Z,72.34
2018-09-29T07:29:20.042Z,71.37
2018-09-29T07:32:52.028Z,70.63
2018-09-29T07:35:20.796Z,69.97
2018-09-29T07:37:49.943Z,69.70
2018-09-29T07:40:19.440Z,69.36
2018-09-29T07:42:48.220Z,67.80
2018-09-29T07:45:17.056Z,67.73
2018-09-29T07:47:45.905Z,68.26
2018-09-29T07:50:14.747Z,66.86
2018-09-29T07:52:44.460Z,65.75
2018-09-29T07:55:13.949Z,65.18
2018-09-29T07:57:43.571Z,64.60
2018-09-29T08:00:13.364Z,64.30
2018-09-29T08:02:42.228Z,64.30
2018-09-29T08:05:11.127Z,64.13
2018-09-29T08:08:11.691Z,62.53
2018-09-29T08:10:40.526Z,62.83
2018-09-29T08:13:09.352Z,62.83
2018-09-29T08:15:38.409Z,61.10
2018-09-29T08:18:07.436Z,60.60
2018-09-29T08:20:37.009Z,60.18
2018-09-29T08:23:06.624Z,59.27
2018-09-29T08:25:35.865Z,58.53
2018-09-29T08:28:04.662Z,58.67
2018-09-29T08:30:34.671Z,57.06
2018-09-29T08:33:03.765Z,58.16
2018-09-29T08:35:32.550Z,56.68
2018-09-29T08:38:01.554Z,55.90
2018-09-29T08:40:30.344Z,55.46
2018-09-29T08:42:59.184Z,56.44
2018-09-29T08:45:28.491Z,56.41
2018-09-29T08:47:57.274Z,55.46
2018-09-29T08:50:26.956Z,54.99
2018-09-29T08:52:56.202Z,55.02
2018-09-29T08:55:25.725Z,54.48
2018-09-29T08:57:54.632Z,54.88
2018-09-29T09:00:24.049Z,54.75
2018-09-29T09:02:52.869Z,53.92
2018-09-29T09:05:21.671Z,53.31
2018-09-29T09:07:51.413Z,52.97
2018-09-29T09:10:20.199Z,52.15
2018-09-29T09:12:49.220Z,52.85
2018-09-29T09:15:18.625Z,51.54
2018-09-29T09:17:47.554Z,51.73
2018-09-29T09:20:17.364Z,51.79
2018-09-29T09:22:47.059Z,53.32
2018-09-29T09:25:16.431Z,52.07
2018-09-29T09:27:45.733Z,52.57
2018-09-29T09:30:14.548Z,52.39
2018-09-29T09:32:44.332Z,53.92
2018-09-29T09:35:13.354Z,52.94
2018-09-29T09:37:42.479Z,53.16
2018-09-29T09:40:11.410Z,53.55
2018-09-29T09:42:40.457Z,52.80
2018-09-29T09:45:09.489Z,53.52
2018-09-29T09:47:38.423Z,52.80
2018-09-29T09:50:07.272Z,52.90
2018-09-29T09:52:37.288Z,53.44
2018-09-29T09:55:06.844Z,52.11
2018-09-29T09:57:35.788Z,51.84
2018-09-29T10:00:05.352Z,52.24
2018-09-29T10:02:39.301Z,52.03
2018-09-29T10:06:10.988Z,51.10
2018-09-29T10:08:40.392Z,51.34
2018-09-29T10:11:09.257Z,52.40
2018-09-29T10:13:38.125Z,52.39
2018-09-29T10:16:07.116Z,53.20
2018-09-29T10:18:37.327Z,52.73
2018-09-29T10:21:07.025Z,52.67
2018-09-29T10:23:36.919Z,53.60
2018-09-29T10:26:07.054Z,54.42
2018-09-29T10:28:35.894Z,54.99
2018-09-29T10:31:04.772Z,54.70
2018-09-29T10:33:45.739Z,55.66
2018-09-29T10:36:15.983Z,56.44
2018-09-29T10:38:49.244Z,55.78
2018-09-29T10:41:18.089Z,55.36
2018-09-29T10:43:47.039Z,56.17
2018-09-29T10:46:15.815Z,56.23
2018-09-29T10:48:44.743Z,55.83
2018-09-29T10:51:20.537Z,55.95
2018-09-29T10:53:50.205Z,55.73
2018-09-29T10:56:19.712Z,56.51
2018-09-29T10:58:49.119Z,56.48
2018-09-29T11:01:18.523Z,56.09
2018-09-29T11:03:47.492Z,56.56
2018-09-29T11:06:16.383Z,56.38
2018-09-29T11:08:45.824Z,56.06
2018-09-29T11:11:14.803Z,55.19
2018-09-29T11:13:44.472Z,55.65
2018-09-29T11:16:13.527Z,54.76
2018-09-29T11:18:42.447Z,53.87
2018-09-29T11:21:12.528Z,54.66
2018-09-29T11:23:41.889Z,54.80
2018-09-29T11:26:10.679Z,53.95
2018-09-29T11:28:39.507Z,54.28
2018-09-29T11:31:08.470Z,54.62
2018-09-29T11:33:37.400Z,54.70
2018-09-29T11:36:06.432Z,54.68
2018-09-29T11:38:35.737Z,53.28
2018-09-29T11:41:04.641Z,53.50
2018-09-29T11:43:33.447Z,53.72
2018-09-29T11:46:02.303Z,53.18
2018-09-29T11:48:31.454Z,54.07
2018-09-29T11:51:00.291Z,54.34
2018-09-29T11:53:29.788Z,54.02
2018-09-29T11:55:59.381Z,54.31
2018-09-29T11:58:29.018Z,54.26
2018-09-29T12:00:58.380Z,54.64
2018-09-29T12:03:42.028Z,54.82
2018-09-29T12:06:10.864Z,54.19
2018-09-29T12:08:40.574Z,53.90
2018-09-29T12:11:09.361Z,53.51
2018-09-29T12:13:38.129Z,53.53
2018-09-29T12:16:11.927Z,52.91
2018-09-29T12:18:52.729Z,53.41
2018-09-29T12:21:22.071Z,52.76
2018-09-29T12:23:52.407Z,52.76
2018-09-29T12:26:22.657Z,52.20
2018-09-29T12:28:51.621Z,52.21
2018-09-29T12:31:21.215Z,52.37
2018-09-29T12:33:50.032Z,51.53
2018-09-29T12:36:21.015Z,51.36
2018-09-29T12:38:49.861Z,51.87
2018-09-29T12:41:18.879Z,52.94
2018-09-29T12:43:47.700Z,53.16
2018-09-29T12:46:16.527Z,52.93
2018-09-29T12:48:45.497Z,53.33
2018-09-29T12:51:14.575Z,52.71
2018-09-29T12:53:44.236Z,54.07
2018-09-29T12:56:13.859Z,53.66
2018-09-29T12:58:43.484Z,53.77
2018-09-29T13:01:12.992Z,54.30
2018-09-29T13:03:42.036Z,54.88
2018-09-29T13:06:10.841Z,56.10
2018-09-29T13:08:41.487Z,56.27
2018-09-29T13:11:10.445Z,56.84
2018-09-29T13:13:39.325Z,57.13
2018-09-29T13:16:08.939Z,57.61
2018-09-29T13:18:38.002Z,57.39
2018-09-29T13:21:07.660Z,58.23
2018-09-29T13:23:37.475Z,57.57
2018-09-29T13:26:06.597Z,58.05
2018-09-29T13:28:35.455Z,58.46
2018-09-29T13:31:04.435Z,58.87
2018-09-29T13:33:33.259Z,59.60
2018-09-29T13:36:02.246Z,60.10
2018-09-29T13:38:32.105Z,59.33
2018-09-29T13:41:01.012Z,59.86
2018-09-29T13:43:29.920Z,60.18
2018-09-29T13:45:59.688Z,60.31
2018-09-29T13:48:28.501Z,60.23
2018-09-29T13:50:57.301Z,60.10
2018-09-29T13:53:49.439Z,60.70
2018-09-29T13:56:19.345Z,60.37
2018-09-29T13:58:49.101Z,61.41
2018-09-29T14:01:18.828Z,62.03
2018-09-29T14:03:47.720Z,62.46
2018-09-29T14:06:16.503Z,62.18
2018-09-29T14:08:46.688Z,62.69
2018-09-29T14:11:15.447Z,63.22
2018-09-29T14:13:45.260Z,63.62
2018-09-29T14:16:14.752Z,63.32
2018-09-29T14:18:43.678Z,64.50
2018-09-29T14:21:13.191Z,64.89
2018-09-29T14:23:42.584Z,65.79
2018-09-29T14:26:11.474Z,66.10
2018-09-29T14:28:40.296Z,66.45
2018-09-29T14:31:09.529Z,66.66
2018-09-29T14:33:38.941Z,66.80
2018-09-29T14:36:08.053Z,66.06
2018-09-29T14:38:37.673Z,66.52
2018-09-29T14:41:06.642Z,66.86
2018-09-29T14:43:36.773Z,66.18
2018-09-29T14:46:05.578Z,66.20
2018-09-29T14:48:34.572Z,65.41
2018-09-29T14:51:03.410Z,65.21
2018-09-29T14:53:32.853Z,64.26
2018-09-29T14:56:02.088Z,63.61
2018-09-29T14:58:31.547Z,63.65
2018-09-29T15:01:00.731Z,63.77
2018-09-29T15:03:30.276Z,63.73
2018-09-29T15:05:59.078Z,63.58
2018-09-29T15:08:28.760Z,63.80
2018-09-29T15:10:57.547Z,62.76
2018-09-29T15:13:26.351Z,62.66
2018-09-29T15:15:56.027Z,62.42
2018-09-29T15:18:24.807Z,63.02
2018-09-29T15:20:53.637Z,63.03
2018-09-29T15:23:31.505Z,63.36
2018-09-29T15:26:01.100Z,63.26
2018-09-29T15:28:29.904Z,63.60
2018-09-29T15:30:59.048Z,64.29
2018-09-29T15:33:28.501Z,63.63
2018-09-29T15:35:57.495Z,63.93
2018-09-29T15:38:26.265Z,64.53
2018-09-29T15:40:55.124Z,64.46
2018-09-29T15:43:24.616Z,64.50
2018-09-29T15:45:53.887Z,66.42
2018-09-29T15:48:22.660Z,68.99
2018-09-29T15:50:51.806Z,69.96
2018-09-29T15:53:21.304Z,70.22
2018-09-29T15:55:50.789Z,70.77
2018-09-29T15:58:20.135Z,69.70
2018-09-29T16:00:49.541Z,70.39
2018-09-29T16:03:18.401Z,70.19
2018-09-29T16:05:48.364Z,70.37
2018-09-29T16:08:17.876Z,70.71
2018-09-29T16:10:47.603Z,70.23
2018-09-29T16:13:16.591Z,69.28
2018-09-29T16:15:45.393Z,69.42
2018-09-29T16:18:14.456Z,69.30
2018-09-29T16:20:43.393Z,68.83
2018-09-29T16:23:13.818Z,69.17
2018-09-29T16:25:43.720Z,68.67
2018-09-29T16:28:12.511Z,68.32
2018-09-29T16:30:41.318Z,68.03
2018-09-29T16:33:10.249Z,67.97
2018-09-29T16:35:40.050Z,67.79
2018-09-29T16:38:09.205Z,67.46
2018-09-29T16:40:38.121Z,67.65
2018-09-29T16:43:07.648Z,68.40
2018-09-29T16:45:36.651Z,68.45
2018-09-29T16:48:05.620Z,69.73
2018-09-29T16:50:34.468Z,69.59
2018-09-29T16:53:04.040Z,68.76
2018-09-29T16:55:33.291Z,69.59
2018-09-29T16:58:04.224Z,68.65
2018-09-29T17:00:33.656Z,68.26
2018-09-29T17:03:02.496Z,68.41
2018-09-29T17:05:31.279Z,69.13
2018-09-29T17:08:00.550Z,68.26
2018-09-29T17:10:30.331Z,69.02
2018-09-29T17:12:59.145Z,69.29
2018-09-29T17:15:28.517Z,69.16
2018-09-29T17:17:57.374Z,69.77
2018-09-29T17:20:26.328Z,70.28
2018-09-29T17:22:55.732Z,70.41
2018-09-29T17:25:25.059Z,70.86
2018-09-29T17:27:53.980Z,70.33
2018-09-29T17:30:22.888Z,70.56
2018-09-29T17:32:51.821Z,70.51
2018-09-29T17:35:21.359Z,70.49
2018-09-29T17:37:50.195Z,70.11
2018-09-29T17:40:19.143Z,69.70
2018-09-29T17:42:48.618Z,70.20
2018-09-29T17:45:17.453Z,69.22
2018-09-29T17:47:46.948Z,69.18
2018-09-29T17:50:16.115Z,69.05
2018-09-29T17:52:45.819Z,68.84
2018-09-29T17:55:15.797Z,68.98
2018-09-29T17:57:45.096Z,68.97
2018-09-29T18:00:15.308Z,68.94
2018-09-29T18:02:44.360Z,68.25
2018-09-29T18:05:13.427Z,68.91
2018-09-29T18:07:43.320Z,68.97
2018-09-29T18:10:12.348Z,68.88
2018-09-29T18:12:41.937Z,68.65
2018-09-29T18:15:10.728Z,68.71
2018-09-29T18:17:39.624Z,68.43
2018-09-29T18:20:09.055Z,68.66
2018-09-29T18:22:39.714Z,68.62
2018-09-29T18:25:09.443Z,68.65
2018-09-29T18:27:38.528Z,68.12
2018-09-29T18:30:07.761Z,67.84
2018-09-29T18:32:36.581Z,68.69
2018-09-29T18:35:06.502Z,68.37
2018-09-29T18:37:35.443Z,68.54
2018-09-29T18:40:04.298Z,68.34
2018-09-29T18:42:34.192Z,68.74
2018-09-29T18:45:03.103Z,68.26
2018-09-29T18:47:31.918Z,69.51
2018-09-29T18:50:00.856Z,69.68
2018-09-29T18:52:30.579Z,69.39
2018-09-29T18:55:00.304Z,68.77
2018-09-29T18:57:29.180Z,69.34
2018-09-29T18:59:58.423Z,69.74
2018-09-29T19:02:27.183Z,69.32
2018-09-29T19:04:56.034Z,69.95
2018-09-29T19:07:25.494Z,70.18
2018-09-29T19:09:54.800Z,70.01
2018-09-29T19:12:23.616Z,69.79
2018-09-29T19:14:52.424Z,68.96
2018-09-29T19:17:21.237Z,69.05
2018-09-29T19:19:50.092Z,70.20
2018-09-29T19:22:23.852Z,69.87
2018-09-29T19:24:53.336Z,70.08
2018-09-29T19:27:22.203Z,69.86
2018-09-29T19:29:51.052Z,69.88
2018-09-29T19:32:19.958Z,69.61
2018-09-29T19:34:49.900Z,70.22
2018-09-29T19:37:18.815Z,69.64
2018-09-29T19:39:48.403Z,69.58
2018-09-29T19:42:17.751Z,70.21
2018-09-29T19:44:46.600Z,69.01
2018-09-29T19:47:15.395Z,69.36
2018-09-29T19:49:44.696Z,69.07
2018-09-29T19:52:15.388Z,68.74
2018-09-29T19:54:46.055Z,68.86
2018-09-29T19:57:14.948Z,68.93
2018-09-29T19:59:44.388Z,69.38
2018-09-29T20:02:13.936Z,68.24
2018-09-29T20:04:43.556Z,68.15
2018-09-29T20:07:13.017Z,68.60
2018-09-29T20:09:41.894Z,68.20
2018-09-29T20:12:13.430Z,68.40
2018-09-29T20:14:43.003Z,69.03
2018-09-29T20:17:11.868Z,69.00
2018-09-29T20:19:40.786Z,69.00
2018-09-29T20:22:10.928Z,68.78
2018-09-29T20:24:40.172Z,68.98
2018-09-29T20:27:09.405Z,69.11
2018-09-29T20:29:38.779Z,69.12
2018-09-29T20:32:07.820Z,69.26
2018-09-29T20:34:37.788Z,70.08
2018-09-29T20:37:07.456Z,69.46
2018-09-29T20:39:36.443Z,69.83
2018-09-29T20:42:06.507Z,69.68
2018-09-29T20:44:35.697Z,69.78
2018-09-29T20:47:09.021Z,68.75
2018-09-29T20:49:38.774Z,69.30
2018-09-29T20:52:08.517Z,69.47
2018-09-29T20:54:37.977Z,69.33
2018-09-29T20:57:07.088Z,69.71
2018-09-29T20:59:36.996Z,69.04
2018-09-29T21:02:06.591Z,69.33
2018-09-29T21:04:35.489Z,68.85
2018-09-29T21:07:04.323Z,69.19
2018-09-29T21:09:35.587Z,68.41
2018-09-29T21:12:04.421Z,68.45
2018-09-29T21:14:33.771Z,68.11
2018-09-29T21:17:02.697Z,68.61
2018-09-29T21:19:32.672Z,68.11
2018-09-29T21:22:01.473Z,68.10
2018-09-29T21:24:31.860Z,67.90
2018-09-29T21:27:00.677Z,67.92
2018-09-29T21:29:30.243Z,67.39
2018-09-29T21:31:59.439Z,67.84
2018-09-29T21:34:28.541Z,68.14
2018-09-29T21:36:58.071Z,67.37
2018-09-29T21:39:26.885Z,67.60
2018-09-29T21:41:56.309Z,67.69
2018-09-29T21:44:25.824Z,67.76
2018-09-29T21:46:55.537Z,67.39
2018-09-29T21:49:25.834Z,67.10
2018-09-29T21:51:58.654Z,67.25
2018-09-29T21:54:27.926Z,66.78
2018-09-29T21:56:56.930Z,66.90
2018-09-29T21:59:26.555Z,66.80
2018-09-29T22:01:55.381Z,66.24
2018-09-29T22:04:24.561Z,66.71
2018-09-29T22:06:53.414Z,67.47
2018-09-29T22:09:24.684Z,66.67
2018-09-29T22:11:53.811Z,66.70
2018-09-29T22:14:22.643Z,67.07
2018-09-29T22:16:51.499Z,66.70
2018-09-29T22:19:21.397Z,67.28
2018-09-29T22:21:50.210Z,66.48
2018-09-29T22:24:19.767Z,67.04
2018-09-29T22:26:48.805Z,66.62
2018-09-29T22:29:17.632Z,67.00
2018-09-29T22:31:46.495Z,66.34
2018-09-29T22:34:15.354Z,67.04
2018-09-29T22:36:47.765Z,66.62
2018-09-29T22:39:17.204Z,66.75
2018-09-29T22:41:46.028Z,66.80
2018-09-29T22:44:15.369Z,66.28
2018-09-29T22:46:45.456Z,66.40
2018-09-29T22:49:14.820Z,66.90
2018-09-29T22:51:44.075Z,66.43
2018-09-29T22:54:12.826Z,66.61
2018-09-29T22:56:42.021Z,66.67
2018-09-29T22:59:11.739Z,66.16
2018-09-29T23:01:40.545Z,66.51
2018-09-29T23:04:09.707Z,67.22
2018-09-29T23:06:39.002Z,66.12
2018-09-29T23:09:11.712Z,66.81
2018-09-29T23:11:41.619Z,66.33
2018-09-29T23:14:10.669Z,66.01
2018-09-29T23:16:39.871Z,65.58
2018-09-29T23:19:09.579Z,65.40
2018-09-29T23:21:38.571Z,64.91
2018-09-29T23:24:08.358Z,64.70
2018-09-29T23:26:38.055Z,64.06
2018-09-29T23:29:06.955Z,64.41
2018-09-29T23:31:36.260Z,63.52
2018-09-29T23:34:05.114Z,64.32
2018-09-29T23:36:34.624Z,63.65
2018-09-29T23:39:03.784Z,63.53
2018-09-29T23:41:33.091Z,63.05
2018-09-29T23:44:02.491Z,63.78
2018-09-29T23:46:31.935Z,62.66
2018-09-29T23:49:02.058Z,62.82
2018-09-29T23:51:31.412Z,62.62
2018-09-29T23:54:00.167Z,63.09
2018-09-29T23:56:28.915Z,62.01
2018-09-29T23:58:58.340Z,62.18
